In Rescue
 
Open Full Screen Window  High Contrast Mode
Wind Gusting 00 knots
06
January 22, 2020 5:43 PM EST
Weather Information
Wind Direction
  170 °
Wind Speed
  06 kt (7 mph)
Wind Gust
  00 kt (0 mph)
Altimeter
30.16 in
Visibility
10 SM
Temperature
-01° C
30° F
Dewpoint
-07° C
19° F
Humidity
64%
1hr Rain Fall
00.00 in.
24hr Rain Fall
00.00 in.
Sky Condition
Clear
VFR

METAR KMOP 222243Z AUTO 17006KT 10SM CLR M01/M07 A3016 RMK AO2 T10061075

FAA Disclaimer: The data displayed is for advisory purposes only and is not to be used for flight planning or operations.